sensor_id;sensor_type;location;lat;lon;timestamp;temperature;humidity
71082;SHT31;58740;50.672;18.690;2022-11-15T00:01:17;4.72;86.44
71082;SHT31;58740;50.672;18.690;2022-11-15T00:03:46;4.66;86.47
71082;SHT31;58740;50.672;18.690;2022-11-15T00:06:18;4.61;86.63
71082;SHT31;58740;50.672;18.690;2022-11-15T00:08:46;4.58;86.66
71082;SHT31;58740;50.672;18.690;2022-11-15T00:11:14;4.56;86.74
71082;SHT31;58740;50.672;18.690;2022-11-15T00:13:42;4.59;86.82
71082;SHT31;58740;50.672;18.690;2022-11-15T00:16:10;4.62;86.73
71082;SHT31;58740;50.672;18.690;2022-11-15T00:18:38;4.59;86.64
71082;SHT31;58740;50.672;18.690;2022-11-15T00:21:07;4.58;86.75
71082;SHT31;58740;50.672;18.690;2022-11-15T00:23:38;4.55;86.75
71082;SHT31;58740;50.672;18.690;2022-11-15T00:26:07;4.55;86.82
71082;SHT31;58740;50.672;18.690;2022-11-15T00:28:40;4.54;86.77
71082;SHT31;58740;50.672;18.690;2022-11-15T00:31:11;4.56;86.75
71082;SHT31;58740;50.672;18.690;2022-11-15T00:33:42;4.58;86.65
71082;SHT31;58740;50.672;18.690;2022-11-15T00:36:11;4.57;86.65
71082;SHT31;58740;50.672;18.690;2022-11-15T00:38:39;4.59;86.59
71082;SHT31;58740;50.672;18.690;2022-11-15T00:41:08;4.59;86.55
71082;SHT31;58740;50.672;18.690;2022-11-15T00:43:36;4.60;86.48
71082;SHT31;58740;50.672;18.690;2022-11-15T00:46:07;4.57;86.45
71082;SHT31;58740;50.672;18.690;2022-11-15T00:48:37;4.59;86.50
71082;SHT31;58740;50.672;18.690;2022-11-15T00:51:05;4.58;86.34
71082;SHT31;58740;50.672;18.690;2022-11-15T00:53:32;4.60;86.34
71082;SHT31;58740;50.672;18.690;2022-11-15T00:56:01;4.59;86.24
71082;SHT31;58740;50.672;18.690;2022-11-15T00:58:28;4.57;86.30
71082;SHT31;58740;50.672;18.690;2022-11-15T01:00:56;4.57;86.37
71082;SHT31;58740;50.672;18.690;2022-11-15T01:03:32;4.57;86.38
71082;SHT31;58740;50.672;18.690;2022-11-15T01:06:02;4.56;86.27
71082;SHT31;58740;50.672;18.690;2022-11-15T01:08:31;4.53;86.29
71082;SHT31;58740;50.672;18.690;2022-11-15T01:11:02;4.56;86.32
71082;SHT31;58740;50.672;18.690;2022-11-15T01:13:32;4.57;86.21
71082;SHT31;58740;50.672;18.690;2022-11-15T01:16:10;4.56;86.15
71082;SHT31;58740;50.672;18.690;2022-11-15T01:18:41;4.58;86.18
71082;SHT31;58740;50.672;18.690;2022-11-15T01:21:10;4.60;86.18
71082;SHT31;58740;50.672;18.690;2022-11-15T01:23:44;4.64;86.15
71082;SHT31;58740;50.672;18.690;2022-11-15T01:26:13;4.64;85.99
71082;SHT31;58740;50.672;18.690;2022-11-15T01:28:42;4.64;85.90
71082;SHT31;58740;50.672;18.690;2022-11-15T01:31:11;4.63;85.90
71082;SHT31;58740;50.672;18.690;2022-11-15T01:33:43;4.67;86.03
71082;SHT31;58740;50.672;18.690;2022-11-15T01:36:15;4.71;85.96
71082;SHT31;58740;50.672;18.690;2022-11-15T01:38:58;4.76;85.97
71082;SHT31;58740;50.672;18.690;2022-11-15T01:41:28;4.82;85.81
71082;SHT31;58740;50.672;18.690;2022-11-15T01:46:59;4.88;85.72
71082;SHT31;58740;50.672;18.690;2022-11-15T01:49:33;4.89;85.67
71082;SHT31;58740;50.672;18.690;2022-11-15T01:52:11;4.90;85.55
71082;SHT31;58740;50.672;18.690;2022-11-15T01:54:47;4.92;85.50
71082;SHT31;58740;50.672;18.690;2022-11-15T01:57:20;4.94;85.41
71082;SHT31;58740;50.672;18.690;2022-11-15T01:59:48;4.94;85.22
71082;SHT31;58740;50.672;18.690;2022-11-15T02:02:16;4.93;85.14
71082;SHT31;58740;50.672;18.690;2022-11-15T02:04:45;4.91;85.18
71082;SHT31;58740;50.672;18.690;2022-11-15T02:07:17;4.89;85.07
71082;SHT31;58740;50.672;18.690;2022-11-15T02:09:49;4.85;85.13
71082;SHT31;58740;50.672;18.690;2022-11-15T02:12:19;4.84;85.20
71082;SHT31;58740;50.672;18.690;2022-11-15T02:14:50;4.81;85.22
71082;SHT31;58740;50.672;18.690;2022-11-15T02:17:32;4.84;85.20
71082;SHT31;58740;50.672;18.690;2022-11-15T02:36:05;4.69;84.90
71082;SHT31;58740;50.672;18.690;2022-11-15T02:38:54;4.66;84.97
71082;SHT31;58740;50.672;18.690;2022-11-15T02:47:07;4.55;84.60
71082;SHT31;58740;50.672;18.690;2022-11-15T02:49:42;4.48;84.64
71082;SHT31;58740;50.672;18.690;2022-11-15T02:52:17;4.41;84.66
71082;SHT31;58740;50.672;18.690;2022-11-15T02:55:00;4.32;84.74
71082;SHT31;58740;50.672;18.690;2022-11-15T03:00:20;4.24;85.09
71082;SHT31;58740;50.672;18.690;2022-11-15T03:11:21;4.43;85.27
71082;SHT31;58740;50.672;18.690;2022-11-15T03:16:40;4.45;84.97
71082;SHT31;58740;50.672;18.690;2022-11-15T03:19:16;4.47;84.98
71082;SHT31;58740;50.672;18.690;2022-11-15T03:22:06;4.50;84.89
71082;SHT31;58740;50.672;18.690;2022-11-15T03:24:41;4.56;84.92
71082;SHT31;58740;50.672;18.690;2022-11-15T03:27:13;4.63;84.61
71082;SHT31;58740;50.672;18.690;2022-11-15T03:29:50;4.64;84.49
71082;SHT31;58740;50.672;18.690;2022-11-15T03:32:25;4.64;84.39
71082;SHT31;58740;50.672;18.690;2022-11-15T03:40:27;4.60;84.63
71082;SHT31;58740;50.672;18.690;2022-11-15T03:43:11;4.63;84.63
71082;SHT31;58740;50.672;18.690;2022-11-15T03:45:59;4.68;84.48
71082;SHT31;58740;50.672;18.690;2022-11-15T03:48:36;4.70;84.57
71082;SHT31;58740;50.672;18.690;2022-11-15T03:51:12;4.73;84.54
71082;SHT31;58740;50.672;18.690;2022-11-15T03:53:41;4.73;84.57
71082;SHT31;58740;50.672;18.690;2022-11-15T03:56:09;4.76;84.46
71082;SHT31;58740;50.672;18.690;2022-11-15T03:58:37;4.78;84.38
71082;SHT31;58740;50.672;18.690;2022-11-15T04:01:04;4.81;84.31
71082;SHT31;58740;50.672;18.690;2022-11-15T04:03:32;4.83;83.96
71082;SHT31;58740;50.672;18.690;2022-11-15T04:06:01;4.80;83.84
71082;SHT31;58740;50.672;18.690;2022-11-15T04:08:28;4.79;83.75
71082;SHT31;58740;50.672;18.690;2022-11-15T04:10:56;4.78;83.54
71082;SHT31;58740;50.672;18.690;2022-11-15T04:13:25;4.74;83.47
71082;SHT31;58740;50.672;18.690;2022-11-15T04:15:53;4.70;83.27
71082;SHT31;58740;50.672;18.690;2022-11-15T04:18:20;4.64;83.21
71082;SHT31;58740;50.672;18.690;2022-11-15T04:20:48;4.61;83.27
71082;SHT31;58740;50.672;18.690;2022-11-15T04:23:35;4.61;83.19
71082;SHT31;58740;50.672;18.690;2022-11-15T04:26:21;4.58;82.97
71082;SHT31;58740;50.672;18.690;2022-11-15T04:28:50;4.55;82.99
71082;SHT31;58740;50.672;18.690;2022-11-15T04:31:37;4.53;82.90
71082;SHT31;58740;50.672;18.690;2022-11-15T04:34:04;4.49;82.73
71082;SHT31;58740;50.672;18.690;2022-11-15T04:36:32;4.44;82.83
71082;SHT31;58740;50.672;18.690;2022-11-15T04:39:19;4.42;82.79
71082;SHT31;58740;50.672;18.690;2022-11-15T04:41:47;4.41;82.66
71082;SHT31;58740;50.672;18.690;2022-11-15T04:44:15;4.40;82.44
71082;SHT31;58740;50.672;18.690;2022-11-15T04:46:43;4.36;82.48
71082;SHT31;58740;50.672;18.690;2022-11-15T04:49:11;4.32;82.55
71082;SHT31;58740;50.672;18.690;2022-11-15T04:51:39;4.32;82.56
71082;SHT31;58740;50.672;18.690;2022-11-15T04:54:06;4.30;82.54
71082;SHT31;58740;50.672;18.690;2022-11-15T04:56:34;4.27;82.43
71082;SHT31;58740;50.672;18.690;2022-11-15T04:59:02;4.23;82.27
71082;SHT31;58740;50.672;18.690;2022-11-15T05:01:30;4.23;82.48
71082;SHT31;58740;50.672;18.690;2022-11-15T05:03:57;4.22;82.17
71082;SHT31;58740;50.672;18.690;2022-11-15T05:06:44;4.20;82.12
71082;SHT31;58740;50.672;18.690;2022-11-15T05:09:18;4.17;82.07
71082;SHT31;58740;50.672;18.690;2022-11-15T05:11:48;4.13;82.16
71082;SHT31;58740;50.672;18.690;2022-11-15T05:14:16;4.11;82.14
71082;SHT31;58740;50.672;18.690;2022-11-15T05:16:44;4.08;82.14
71082;SHT31;58740;50.672;18.690;2022-11-15T05:19:11;4.06;82.33
71082;SHT31;58740;50.672;18.690;2022-11-15T05:21:39;4.05;82.15
71082;SHT31;58740;50.672;18.690;2022-11-15T05:24:09;4.04;82.19
71082;SHT31;58740;50.672;18.690;2022-11-15T05:26:38;4.06;82.23
71082;SHT31;58740;50.672;18.690;2022-11-15T05:29:06;4.08;82.12
71082;SHT31;58740;50.672;18.690;2022-11-15T05:31:38;4.11;82.53
71082;SHT31;58740;50.672;18.690;2022-11-15T05:34:09;4.15;83.00
71082;SHT31;58740;50.672;18.690;2022-11-15T05:36:43;4.18;82.60
71082;SHT31;58740;50.672;18.690;2022-11-15T05:39:15;4.18;82.48
71082;SHT31;58740;50.672;18.690;2022-11-15T05:41:46;4.19;82.31
71082;SHT31;58740;50.672;18.690;2022-11-15T05:44:26;4.18;82.43
71082;SHT31;58740;50.672;18.690;2022-11-15T05:46:55;4.19;82.48
71082;SHT31;58740;50.672;18.690;2022-11-15T05:49:25;4.20;82.21
71082;SHT31;58740;50.672;18.690;2022-11-15T05:51:59;4.23;82.34
71082;SHT31;58740;50.672;18.690;2022-11-15T05:54:26;4.24;82.13
71082;SHT31;58740;50.672;18.690;2022-11-15T05:56:54;4.24;81.91
71082;SHT31;58740;50.672;18.690;2022-11-15T05:59:23;4.23;82.04
71082;SHT31;58740;50.672;18.690;2022-11-15T06:01:51;4.21;81.96
71082;SHT31;58740;50.672;18.690;2022-11-15T06:04:19;4.18;82.02
71082;SHT31;58740;50.672;18.690;2022-11-15T06:06:47;4.16;82.12
71082;SHT31;58740;50.672;18.690;2022-11-15T06:09:14;4.17;82.21
71082;SHT31;58740;50.672;18.690;2022-11-15T06:11:42;4.18;82.27
71082;SHT31;58740;50.672;18.690;2022-11-15T06:14:10;4.20;82.16
71082;SHT31;58740;50.672;18.690;2022-11-15T06:16:37;4.21;82.03
71082;SHT31;58740;50.672;18.690;2022-11-15T06:19:05;4.23;82.08
71082;SHT31;58740;50.672;18.690;2022-11-15T06:21:34;4.23;82.26
71082;SHT31;58740;50.672;18.690;2022-11-15T06:24:02;4.23;82.47
71082;SHT31;58740;50.672;18.690;2022-11-15T06:26:32;4.24;82.76
71082;SHT31;58740;50.672;18.690;2022-11-15T06:28:59;4.26;82.86
71082;SHT31;58740;50.672;18.690;2022-11-15T06:31:27;4.30;82.93
71082;SHT31;58740;50.672;18.690;2022-11-15T06:33:55;4.35;82.78
71082;SHT31;58740;50.672;18.690;2022-11-15T06:36:23;4.39;82.62
71082;SHT31;58740;50.672;18.690;2022-11-15T06:38:50;4.42;82.53
71082;SHT31;58740;50.672;18.690;2022-11-15T06:41:18;4.45;82.70
71082;SHT31;58740;50.672;18.690;2022-11-15T06:43:48;4.48;82.82
71082;SHT31;58740;50.672;18.690;2022-11-15T06:46:15;4.49;83.11
71082;SHT31;58740;50.672;18.690;2022-11-15T06:48:43;4.51;83.18
71082;SHT31;58740;50.672;18.690;2022-11-15T06:51:11;4.54;83.19
71082;SHT31;58740;50.672;18.690;2022-11-15T06:53:39;4.56;83.29
71082;SHT31;58740;50.672;18.690;2022-11-15T06:56:06;4.62;83.21
71082;SHT31;58740;50.672;18.690;2022-11-15T06:58:35;4.68;83.14
71082;SHT31;58740;50.672;18.690;2022-11-15T07:01:04;4.72;83.12
71082;SHT31;58740;50.672;18.690;2022-11-15T07:03:38;4.76;83.21
71082;SHT31;58740;50.672;18.690;2022-11-15T07:06:09;4.80;83.22
71082;SHT31;58740;50.672;18.690;2022-11-15T07:08:37;4.84;83.20
71082;SHT31;58740;50.672;18.690;2022-11-15T07:11:06;4.89;83.18
71082;SHT31;58740;50.672;18.690;2022-11-15T07:13:35;4.96;83.15
71082;SHT31;58740;50.672;18.690;2022-11-15T07:16:05;5.05;83.13
71082;SHT31;58740;50.672;18.690;2022-11-15T07:18:36;5.15;83.06
71082;SHT31;58740;50.672;18.690;2022-11-15T07:21:08;5.23;82.98
71082;SHT31;58740;50.672;18.690;2022-11-15T07:23:38;5.32;83.03
71082;SHT31;58740;50.672;18.690;2022-11-15T07:26:07;5.41;83.02
71082;SHT31;58740;50.672;18.690;2022-11-15T07:28:35;5.49;82.93
71082;SHT31;58740;50.672;18.690;2022-11-15T07:31:07;5.55;82.84
71082;SHT31;58740;50.672;18.690;2022-11-15T07:33:36;5.62;82.80
71082;SHT31;58740;50.672;18.690;2022-11-15T07:36:05;5.69;82.87
71082;SHT31;58740;50.672;18.690;2022-11-15T07:38:34;5.76;82.96
71082;SHT31;58740;50.672;18.690;2022-11-15T07:41:09;5.83;82.78
71082;SHT31;58740;50.672;18.690;2022-11-15T07:43:37;5.89;82.89
71082;SHT31;58740;50.672;18.690;2022-11-15T07:46:05;5.93;83.21
71082;SHT31;58740;50.672;18.690;2022-11-15T07:48:37;5.97;83.28
71082;SHT31;58740;50.672;18.690;2022-11-15T07:51:12;6.02;83.41
71082;SHT31;58740;50.672;18.690;2022-11-15T07:53:43;6.09;83.46
71082;SHT31;58740;50.672;18.690;2022-11-15T07:56:12;6.15;83.54
71082;SHT31;58740;50.672;18.690;2022-11-15T07:58:40;6.22;83.65
71082;SHT31;58740;50.672;18.690;2022-11-15T08:01:09;6.28;83.68
71082;SHT31;58740;50.672;18.690;2022-11-15T08:03:37;6.32;83.67
71082;SHT31;58740;50.672;18.690;2022-11-15T08:06:05;6.36;83.69
71082;SHT31;58740;50.672;18.690;2022-11-15T08:08:33;6.40;83.78
71082;SHT31;58740;50.672;18.690;2022-11-15T08:11:01;6.47;83.66
71082;SHT31;58740;50.672;18.690;2022-11-15T08:13:29;6.53;83.74
71082;SHT31;58740;50.672;18.690;2022-11-15T08:15:59;6.59;83.70
71082;SHT31;58740;50.672;18.690;2022-11-15T08:18:28;6.65;83.81
71082;SHT31;58740;50.672;18.690;2022-11-15T08:21:00;6.73;83.65
71082;SHT31;58740;50.672;18.690;2022-11-15T08:23:28;6.80;83.73
71082;SHT31;58740;50.672;18.690;2022-11-15T08:26:01;6.86;83.68
71082;SHT31;58740;50.672;18.690;2022-11-15T08:28:31;6.93;83.76
71082;SHT31;58740;50.672;18.690;2022-11-15T08:30:59;7.00;83.78
71082;SHT31;58740;50.672;18.690;2022-11-15T08:33:27;7.08;83.90
71082;SHT31;58740;50.672;18.690;2022-11-15T08:35:57;7.17;83.80
71082;SHT31;58740;50.672;18.690;2022-11-15T08:38:27;7.25;83.66
71082;SHT31;58740;50.672;18.690;2022-11-15T08:41:03;7.34;83.48
71082;SHT31;58740;50.672;18.690;2022-11-15T08:43:33;7.41;83.50
71082;SHT31;58740;50.672;18.690;2022-11-15T08:46:01;7.46;83.64
71082;SHT31;58740;50.672;18.690;2022-11-15T08:48:29;7.51;83.58
71082;SHT31;58740;50.672;18.690;2022-11-15T08:50:57;7.57;83.45
71082;SHT31;58740;50.672;18.690;2022-11-15T08:53:25;7.64;83.37
71082;SHT31;58740;50.672;18.690;2022-11-15T08:55:53;7.73;83.46
71082;SHT31;58740;50.672;18.690;2022-11-15T08:58:21;7.81;83.31
71082;SHT31;58740;50.672;18.690;2022-11-15T09:00:48;7.88;83.24
71082;SHT31;58740;50.672;18.690;2022-11-15T09:03:16;7.95;83.25
71082;SHT31;58740;50.672;18.690;2022-11-15T09:05:44;8.02;83.30
71082;SHT31;58740;50.672;18.690;2022-11-15T09:08:12;8.08;83.30
71082;SHT31;58740;50.672;18.690;2022-11-15T09:11:07;8.14;83.02
71082;SHT31;58740;50.672;18.690;2022-11-15T09:13:37;8.21;83.12
71082;SHT31;58740;50.672;18.690;2022-11-15T09:16:04;8.28;82.94
71082;SHT31;58740;50.672;18.690;2022-11-15T09:18:33;8.38;83.20
71082;SHT31;58740;50.672;18.690;2022-11-15T09:21:02;8.49;83.32
71082;SHT31;58740;50.672;18.690;2022-11-15T09:23:30;8.56;83.16
71082;SHT31;58740;50.672;18.690;2022-11-15T09:25:59;8.61;83.02
71082;SHT31;58740;50.672;18.690;2022-11-15T09:28:30;8.67;83.02
71082;SHT31;58740;50.672;18.690;2022-11-15T09:31:17;8.72;82.91
71082;SHT31;58740;50.672;18.690;2022-11-15T09:33:48;8.78;83.01
71082;SHT31;58740;50.672;18.690;2022-11-15T09:36:16;8.86;83.05
71082;SHT31;58740;50.672;18.690;2022-11-15T09:38:44;8.94;82.71
71082;SHT31;58740;50.672;18.690;2022-11-15T09:43:45;9.07;82.25
71082;SHT31;58740;50.672;18.690;2022-11-15T09:46:45;9.13;82.45
71082;SHT31;58740;50.672;18.690;2022-11-15T09:49:56;9.21;82.37
71082;SHT31;58740;50.672;18.690;2022-11-15T09:52:28;9.29;82.13
71082;SHT31;58740;50.672;18.690;2022-11-15T09:54:56;9.37;82.39
71082;SHT31;58740;50.672;18.690;2022-11-15T09:57:30;9.44;82.23
71082;SHT31;58740;50.672;18.690;2022-11-15T10:00:37;9.50;82.04
71082;SHT31;58740;50.672;18.690;2022-11-15T10:06:10;9.60;82.01
71082;SHT31;58740;50.672;18.690;2022-11-15T10:09:02;9.65;81.84
71082;SHT31;58740;50.672;18.690;2022-11-15T10:11:48;9.72;81.82
71082;SHT31;58740;50.672;18.690;2022-11-15T10:14:18;9.79;81.65
71082;SHT31;58740;50.672;18.690;2022-11-15T10:20:06;9.92;81.53
71082;SHT31;58740;50.672;18.690;2022-11-15T10:22:48;9.98;81.19
71082;SHT31;58740;50.672;18.690;2022-11-15T10:25:28;10.03;81.12
71082;SHT31;58740;50.672;18.690;2022-11-15T10:28:00;10.07;81.13
71082;SHT31;58740;50.672;18.690;2022-11-15T10:30:35;10.12;80.87
71082;SHT31;58740;50.672;18.690;2022-11-15T10:33:25;10.17;80.82
71082;SHT31;58740;50.672;18.690;2022-11-15T10:36:14;10.26;80.67
71082;SHT31;58740;50.672;18.690;2022-11-15T10:41:21;10.38;80.34
71082;SHT31;58740;50.672;18.690;2022-11-15T10:47:28;10.48;80.31
71082;SHT31;58740;50.672;18.690;2022-11-15T10:49:54;10.55;80.11
71082;SHT31;58740;50.672;18.690;2022-11-15T10:52:34;10.60;80.08
71082;SHT31;58740;50.672;18.690;2022-11-15T10:55:12;10.67;80.15
71082;SHT31;58740;50.672;18.690;2022-11-15T10:57:58;10.75;79.97
71082;SHT31;58740;50.672;18.690;2022-11-15T11:00:36;10.79;79.74
71082;SHT31;58740;50.672;18.690;2022-11-15T11:03:24;10.84;79.53
71082;SHT31;58740;50.672;18.690;2022-11-15T11:06:09;10.87;79.15
71082;SHT31;58740;50.672;18.690;2022-11-15T11:08:39;10.90;79.17
71082;SHT31;58740;50.672;18.690;2022-11-15T11:11:07;10.91;78.95
71082;SHT31;58740;50.672;18.690;2022-11-15T11:13:37;10.97;78.58
71082;SHT31;58740;50.672;18.690;2022-11-15T11:22:01;11.06;78.49
71082;SHT31;58740;50.672;18.690;2022-11-15T11:24:27;11.06;78.36
71082;SHT31;58740;50.672;18.690;2022-11-15T11:33:20;11.12;78.07
71082;SHT31;58740;50.672;18.690;2022-11-15T11:48:00;11.18;78.00
71082;SHT31;58740;50.672;18.690;2022-11-15T11:50:47;11.20;77.81
71082;SHT31;58740;50.672;18.690;2022-11-15T11:53:31;11.23;77.71
71082;SHT31;58740;50.672;18.690;2022-11-15T11:56:16;11.24;77.63
71082;SHT31;58740;50.672;18.690;2022-11-15T11:58:54;11.24;77.79
71082;SHT31;58740;50.672;18.690;2022-11-15T12:01:34;11.25;77.75
71082;SHT31;58740;50.672;18.690;2022-11-15T12:04:14;11.26;77.71
71082;SHT31;58740;50.672;18.690;2022-11-15T12:06:49;11.28;77.77
71082;SHT31;58740;50.672;18.690;2022-11-15T12:09:35;11.31;77.61
71082;SHT31;58740;50.672;18.690;2022-11-15T12:12:41;11.34;77.60
71082;SHT31;58740;50.672;18.690;2022-11-15T12:16:05;11.36;77.53
71082;SHT31;58740;50.672;18.690;2022-11-15T12:18:41;11.37;77.42
71082;SHT31;58740;50.672;18.690;2022-11-15T12:24:17;11.39;77.42
71082;SHT31;58740;50.672;18.690;2022-11-15T12:29:54;11.44;77.52
71082;SHT31;58740;50.672;18.690;2022-11-15T12:35:01;11.46;77.19
71082;SHT31;58740;50.672;18.690;2022-11-15T12:40:16;11.46;77.23
71082;SHT31;58740;50.672;18.690;2022-11-15T12:43:49;11.46;77.28
71082;SHT31;58740;50.672;18.690;2022-11-15T12:45:45;11.45;77.43
71082;SHT31;58740;50.672;18.690;2022-11-15T12:58:47;11.54;77.38
71082;SHT31;58740;50.672;18.690;2022-11-15T13:06:54;11.52;77.43
71082;SHT31;58740;50.672;18.690;2022-11-15T13:14:46;11.52;77.57
71082;SHT31;58740;50.672;18.690;2022-11-15T13:20:08;11.49;77.56
71082;SHT31;58740;50.672;18.690;2022-11-15T13:28:45;11.41;77.53
71082;SHT31;58740;50.672;18.690;2022-11-15T13:31:36;11.41;77.52
71082;SHT31;58740;50.672;18.690;2022-11-15T13:34:29;11.43;77.78
71082;SHT31;58740;50.672;18.690;2022-11-15T13:39:49;11.47;77.85
71082;SHT31;58740;50.672;18.690;2022-11-15T13:42:18;11.48;77.77
71082;SHT31;58740;50.672;18.690;2022-11-15T13:44:58;11.44;77.81
71082;SHT31;58740;50.672;18.690;2022-11-15T13:47:29;11.42;77.86
71082;SHT31;58740;50.672;18.690;2022-11-15T13:49:59;11.37;77.84
71082;SHT31;58740;50.672;18.690;2022-11-15T13:52:30;11.34;77.88
71082;SHT31;58740;50.672;18.690;2022-11-15T13:57:45;11.32;77.85
71082;SHT31;58740;50.672;18.690;2022-11-15T14:03:21;11.29;77.92
71082;SHT31;58740;50.672;18.690;2022-11-15T14:06:06;11.29;77.96
71082;SHT31;58740;50.672;18.690;2022-11-15T14:11:37;11.20;78.08
71082;SHT31;58740;50.672;18.690;2022-11-15T14:14:16;11.19;78.15
71082;SHT31;58740;50.672;18.690;2022-11-15T14:17:00;11.19;78.19
71082;SHT31;58740;50.672;18.690;2022-11-15T14:24:37;11.14;78.21
71082;SHT31;58740;50.672;18.690;2022-11-15T14:27:16;11.09;78.24
71082;SHT31;58740;50.672;18.690;2022-11-15T14:29:48;11.05;78.36
71082;SHT31;58740;50.672;18.690;2022-11-15T14:32:23;11.00;78.45
71082;SHT31;58740;50.672;18.690;2022-11-15T14:34:56;10.99;78.49
71082;SHT31;58740;50.672;18.690;2022-11-15T14:37:27;10.97;78.50
71082;SHT31;58740;50.672;18.690;2022-11-15T14:40:03;10.95;78.52
71082;SHT31;58740;50.672;18.690;2022-11-15T14:42:33;10.91;78.53
71082;SHT31;58740;50.672;18.690;2022-11-15T14:45:00;10.87;78.64
71082;SHT31;58740;50.672;18.690;2022-11-15T14:47:28;10.80;78.72
71082;SHT31;58740;50.672;18.690;2022-11-15T14:49:56;10.75;78.80
71082;SHT31;58740;50.672;18.690;2022-11-15T14:52:25;10.73;78.89
71082;SHT31;58740;50.672;18.690;2022-11-15T14:54:59;10.73;78.92
71082;SHT31;58740;50.672;18.690;2022-11-15T14:57:29;10.70;78.88
71082;SHT31;58740;50.672;18.690;2022-11-15T14:59:58;10.69;78.90
71082;SHT31;58740;50.672;18.690;2022-11-15T15:02:26;10.65;78.94
71082;SHT31;58740;50.672;18.690;2022-11-15T15:04:54;10.60;79.04
71082;SHT31;58740;50.672;18.690;2022-11-15T15:07:23;10.55;79.09
71082;SHT31;58740;50.672;18.690;2022-11-15T15:09:50;10.50;79.25
71082;SHT31;58740;50.672;18.690;2022-11-15T15:12:19;10.48;79.33
71082;SHT31;58740;50.672;18.690;2022-11-15T15:14:49;10.47;79.30
71082;SHT31;58740;50.672;18.690;2022-11-15T15:17:17;10.46;79.30
71082;SHT31;58740;50.672;18.690;2022-11-15T15:19:45;10.43;79.30
71082;SHT31;58740;50.672;18.690;2022-11-15T15:22:14;10.40;79.31
71082;SHT31;58740;50.672;18.690;2022-11-15T15:24:45;10.37;79.37
71082;SHT31;58740;50.672;18.690;2022-11-15T15:27:14;10.32;79.40
71082;SHT31;58740;50.672;18.690;2022-11-15T15:29:41;10.30;79.42
71082;SHT31;58740;50.672;18.690;2022-11-15T15:32:09;10.29;79.49
71082;SHT31;58740;50.672;18.690;2022-11-15T15:34:38;10.30;79.48
71082;SHT31;58740;50.672;18.690;2022-11-15T15:37:21;10.30;79.56
71082;SHT31;58740;50.672;18.690;2022-11-15T15:39:54;10.30;79.52
71082;SHT31;58740;50.672;18.690;2022-11-15T15:42:24;10.29;79.50
71082;SHT31;58740;50.672;18.690;2022-11-15T15:44:52;10.25;79.49
71082;SHT31;58740;50.672;18.690;2022-11-15T15:47:21;10.22;79.60
71082;SHT31;58740;50.672;18.690;2022-11-15T15:49:50;10.20;79.66
71082;SHT31;58740;50.672;18.690;2022-11-15T15:52:18;10.18;79.73
71082;SHT31;58740;50.672;18.690;2022-11-15T15:54:46;10.18;79.79
71082;SHT31;58740;50.672;18.690;2022-11-15T15:57:14;10.19;79.78
71082;SHT31;58740;50.672;18.690;2022-11-15T15:59:42;10.19;79.79
71082;SHT31;58740;50.672;18.690;2022-11-15T16:02:12;10.18;79.83
71082;SHT31;58740;50.672;18.690;2022-11-15T16:04:41;10.16;79.92
71082;SHT31;58740;50.672;18.690;2022-11-15T16:07:15;10.15;79.90
71082;SHT31;58740;50.672;18.690;2022-11-15T16:09:49;10.14;79.97
71082;SHT31;58740;50.672;18.690;2022-11-15T16:12:31;10.15;79.97
71082;SHT31;58740;50.672;18.690;2022-11-15T16:15:01;10.16;79.97
71082;SHT31;58740;50.672;18.690;2022-11-15T16:17:31;10.18;79.98
71082;SHT31;58740;50.672;18.690;2022-11-15T16:20:05;10.19;79.91
71082;SHT31;58740;50.672;18.690;2022-11-15T16:22:34;10.18;79.95
71082;SHT31;58740;50.672;18.690;2022-11-15T16:25:02;10.17;79.92
71082;SHT31;58740;50.672;18.690;2022-11-15T16:27:30;10.15;79.90
71082;SHT31;58740;50.672;18.690;2022-11-15T16:29:57;10.15;79.90
71082;SHT31;58740;50.672;18.690;2022-11-15T16:32:25;10.15;79.90
71082;SHT31;58740;50.672;18.690;2022-11-15T16:34:53;10.16;79.97
71082;SHT31;58740;50.672;18.690;2022-11-15T16:37:23;10.16;79.94
71082;SHT31;58740;50.672;18.690;2022-11-15T16:39:51;10.16;79.93
71082;SHT31;58740;50.672;18.690;2022-11-15T16:42:26;10.15;80.00
71082;SHT31;58740;50.672;18.690;2022-11-15T16:44:53;10.11;80.09
71082;SHT31;58740;50.672;18.690;2022-11-15T16:47:21;10.08;80.15
71082;SHT31;58740;50.672;18.690;2022-11-15T16:49:49;10.07;80.12
71082;SHT31;58740;50.672;18.690;2022-11-15T16:52:16;10.07;80.15
71082;SHT31;58740;50.672;18.690;2022-11-15T16:54:48;10.08;80.12
71082;SHT31;58740;50.672;18.690;2022-11-15T16:57:15;10.08;80.09
71082;SHT31;58740;50.672;18.690;2022-11-15T16:59:43;10.10;80.05
71082;SHT31;58740;50.672;18.690;2022-11-15T17:02:11;10.09;80.02
71082;SHT31;58740;50.672;18.690;2022-11-15T17:04:40;10.07;80.09
71082;SHT31;58740;50.672;18.690;2022-11-15T17:07:07;10.04;80.10
71082;SHT31;58740;50.672;18.690;2022-11-15T17:09:35;10.03;80.15
71082;SHT31;58740;50.672;18.690;2022-11-15T17:12:03;10.02;80.20
71082;SHT31;58740;50.672;18.690;2022-11-15T17:14:31;10.01;80.23
71082;SHT31;58740;50.672;18.690;2022-11-15T17:16:59;10.02;80.30
71082;SHT31;58740;50.672;18.690;2022-11-15T17:19:27;10.02;80.30
71082;SHT31;58740;50.672;18.690;2022-11-15T17:21:55;10.00;80.22
71082;SHT31;58740;50.672;18.690;2022-11-15T17:24:22;9.97;80.27
71082;SHT31;58740;50.672;18.690;2022-11-15T17:26:50;9.94;80.39
71082;SHT31;58740;50.672;18.690;2022-11-15T17:29:18;9.91;80.42
71082;SHT31;58740;50.672;18.690;2022-11-15T17:31:46;9.90;80.46
71082;SHT31;58740;50.672;18.690;2022-11-15T17:34:16;9.89;80.47
71082;SHT31;58740;50.672;18.690;2022-11-15T17:36:44;9.90;80.50
71082;SHT31;58740;50.672;18.690;2022-11-15T17:39:11;9.90;80.50
71082;SHT31;58740;50.672;18.690;2022-11-15T17:41:40;9.89;80.47
71082;SHT31;58740;50.672;18.690;2022-11-15T17:44:08;9.86;80.51
71082;SHT31;58740;50.672;18.690;2022-11-15T17:46:36;9.86;80.53
71082;SHT31;58740;50.672;18.690;2022-11-15T17:49:04;9.86;80.54
71082;SHT31;58740;50.672;18.690;2022-11-15T17:51:32;9.88;80.50
71082;SHT31;58740;50.672;18.690;2022-11-15T17:54:00;9.88;80.49
71082;SHT31;58740;50.672;18.690;2022-11-15T17:56:29;9.88;80.40
71082;SHT31;58740;50.672;18.690;2022-11-15T17:58:59;9.87;80.40
71082;SHT31;58740;50.672;18.690;2022-11-15T18:01:31;9.86;80.42
71082;SHT31;58740;50.672;18.690;2022-11-15T18:04:02;9.84;80.50
71082;SHT31;58740;50.672;18.690;2022-11-15T18:06:34;9.81;80.50
71082;SHT31;58740;50.672;18.690;2022-11-15T18:09:03;9.82;80.51
71082;SHT31;58740;50.672;18.690;2022-11-15T18:11:33;9.83;80.50
71082;SHT31;58740;50.672;18.690;2022-11-15T18:14:08;9.82;80.54
71082;SHT31;58740;50.672;18.690;2022-11-15T18:16:40;9.81;80.60